Forside
METAR-TAF:

METAR-TAF

Lufthavne :

Mountain Empire Airport

Marion / Wytheville, Virginia, USA

Breddekreds: 36-54N, længdekreds: 081-21W, højde: 780 m

Aktuelle vejr

Denne rapport blev lavet for 19 minutter siden, kl. 15:35 UTC
Vind 11 kt fra vestsydvest
Temperatur 16°C
Fugtighed 94%
Tryk 1012 hPa
Sigt: 16.1 km
Overskyet i en højde af 800 ft

METAR: KMKJ 081535Z AUTO 25011KT 10SM OVC008 16/15 A2988 RMK AO2 T01580146

Tid: 11:54 (15:54 UTC)


TAF: fraværende

Vejrobservationer og prognoser fra mere end 4000 lufthavne (METAR og TAF).

De gule og røde prikker repræsenterer de meteorologiske stationer.

Flyt musen over at se navnet på stationen.

Så klik over at se vejr observationer og prognoser.

At skifte det kort: Klik på de grønne knapper med et sort kors for at zoome ind; på den grønne knap med en bindestreg for at zoome ud; eller på de grønne pile for tilstødende kort.


METAR-TAF: